Stormwatcher's Retreat Logo




                  Temp     Hi    Low   Out    Dew  Wind  Wind   Wind    Hi    Hi   Wind   Heat    THW   THSW                Rain  Solar   Solar Hi Solar   UV    UV    Hi     Heat    Cool    In     In    In     In     In   In Air          Wind  Wind    ISS   Arc.
  Date    Time     Out   Temp   Temp   Hum    Pt. Speed   Dir    Run Speed   Dir  Chill  Index  Index  Index   Bar    Rain  Rate   Rad.  Energy    Rad.  Index  Dose   UV     D-D     D-D    Temp   Hum    Dew   Heat    EMC Density     ET   Samp   Tx   Recept  Int.
------------------------------------------------------------------------------------------------------------------------------------------------------------------------------------------------------------------------------------------------------------------------
 1/20/18 12:10a   49.1   49.3   49.1    87   45.4   8.0     S   1.33  13.0   SSE   45.4   49.3   45.6   43.0  30.121  0.00  0.00     0     0.00      0     0.0  0.00   0.0   0.110   0.000   67.9    50   48.6   66.6   9.29  .0749    0.000   210    5    100.0   10 
 1/20/18 12:20a   49.1   49.2   49.0    88   45.7   8.0   SSW   1.33  12.0   SSE   45.4   49.3   45.6   43.0  30.120  0.00  0.00     0     0.00      0     0.0  0.00   0.0   0.110   0.000   67.8    50   48.5   66.5   9.29  .0749    0.000   211    5    100.0   10 
 1/20/18 12:30a   48.8   49.2   48.8    85   44.5   8.0    SW   1.33  13.0     S   45.1   48.9   45.2   42.6  30.117  0.00  0.00     0     0.00      0     0.0  0.00   0.0   0.113   0.000   67.7    50   48.4   66.4   9.30  .0749    0.000   211    5    100.0   10 
 1/20/18 12:40a   49.6   49.6   48.9    79   43.4  10.0    SW   1.67  13.0    SW   44.8   49.5   44.7   42.3  30.115  0.00  0.00     0     0.00      0     0.0  0.00   0.0   0.107   0.000   67.7    50   48.4   66.4   9.30  .0749    0.000   214    5    100.0   10 
 1/20/18 12:50a   49.7   49.8   49.6    79   43.5  10.0    SW   1.67  14.0    SW   44.9   49.6   44.8   42.4  30.115  0.00  0.00     0     0.00      0     0.0  0.00   0.0   0.106   0.000   67.6    50   48.3   66.3   9.30  .0749    0.000   210    5    100.0   10 
 1/20/18  1:00a   49.8   49.9   49.7    79   43.5  11.0    SW   1.83  15.0    SW   44.6   49.7   44.5   42.2  30.112  0.00  0.00     0     0.00      0     0.0  0.00   0.0   0.106   0.000   67.5    50   48.2   66.1   9.30  .0749    0.001   211    5    100.0   10 
 1/20/18  1:10a   50.0   50.1   49.8    79   43.7  10.0    SW   1.67  16.0   SSW   45.3   50.0   45.3   42.9  30.110  0.00  0.00     0     0.00      0     0.0  0.00   0.0   0.104   0.000   67.4    49   47.6   65.9   9.10  .0749    0.000   211    5    100.0   10 
 1/20/18  1:20a   47.8   50.0   47.8    87   44.1  19.0     W   3.17  27.0     W   39.6   47.9   39.7   37.9  30.126  0.00  0.00     0     0.00      0     0.0  0.00   0.0   0.119   0.000   67.4    49   47.6   65.9   9.10  .0750    0.000   210    5    100.0   10 
 1/20/18  1:30a   46.5   47.7   46.5    89   43.4  18.0     W   3.00  27.0     W   38.3   46.6   38.4   36.6  30.126  0.02  0.10     0     0.00      0     0.0  0.00   0.0   0.128   0.000   67.3    49   47.5   65.8   9.10  .0750    0.000   211    5    100.0   10 
 1/20/18  1:40a   46.7   46.8   46.5    88   43.3  15.0   WSW   2.50  22.0   WSW   39.4   46.8   39.5   37.5  30.127  0.02  0.15     0     0.00      0     0.0  0.00   0.0   0.127   0.000   67.2    49   47.4   65.7   9.11  .0750    0.000   213    5    100.0   10 
 1/20/18  1:50a   46.8   47.0   46.7    87   43.1  10.0    SW   1.67  15.0   WSW   41.6   46.9   41.7   39.3  30.125  0.00  0.05     0     0.00      0     0.0  0.00   0.0   0.126   0.000   67.1    49   47.3   65.6   9.11  .0750    0.000   212    5    100.0   10 
 1/20/18  2:00a   47.6   47.6   46.9    88   44.2   6.0    SW   1.00  11.0   WSW   44.8   47.7   44.9   42.2  30.128  0.00  0.00     0     0.00      0     0.0  0.00   0.0   0.121   0.000   67.1    49   47.3   65.6   9.11  .0750    0.001   211    5    100.0   10 
 1/20/18  2:10a   48.0   48.0   47.6    86   44.0  10.0    SW   1.67  16.0   WSW   43.0   48.0   43.0   40.6  30.130  0.00  0.00     0     0.00      0     0.0  0.00   0.0   0.118   0.000   67.0    49   47.2   65.5   9.11  .0751    0.000   211    5    100.0   10 
 1/20/18  2:20a   48.0   48.1   47.9    86   44.0  10.0    SW   1.67  15.0   SSE   43.0   48.0   43.0   40.6  30.133  0.00  0.00     0     0.00      0     0.0  0.00   0.0   0.118   0.000   66.9    49   47.1   65.4   9.11  .0751    0.000   211    5    100.0   10 
 1/20/18  2:30a   48.3   48.5   48.1    86   44.3  11.0    SW   1.83  17.0   WSW   42.8   48.4   42.9   40.6  30.132  0.00  0.00     0     0.00      0     0.0  0.00   0.0   0.116   0.000   66.9    49   47.1   65.4   9.11  .0751    0.000   211    5    100.0   10 
 1/20/18  2:40a   48.2   48.3   48.2    88   44.8   9.0    SW   1.50  14.0    SW   43.7   48.3   43.8   41.3  30.135  0.00  0.00     0     0.00      0     0.0  0.00   0.0   0.117   0.000   66.9    49   47.1   65.4   9.11  .0751    0.000   213    5    100.0   10 
 1/20/18  2:50a   48.1   48.3   48.0    88   44.7   8.0    SW   1.33  13.0    SW   44.2   48.2   44.3   41.7  30.135  0.00  0.00     0     0.00      0     0.0  0.00   0.0   0.117   0.000   66.8    49   47.0   65.3   9.11  .0751    0.000   210    5    100.0   10 
 1/20/18  3:00a   48.2   48.2   48.0    88   44.8   8.0    SW   1.33  12.0    SW   44.3   48.3   44.4   41.8  30.133  0.00  0.00     0     0.00      0     0.0  0.00   0.0   0.117   0.000   66.7    49   46.9   65.1   9.12  .0751    0.001   210    5    100.0   10 
 1/20/18  3:10a   48.3   48.4   48.2    88   44.9   6.0    SW   1.00  11.0   WSW   45.7   48.4   45.8   43.1  30.132  0.00  0.00     0     0.00      0     0.0  0.00   0.0   0.116   0.000   66.6    49   46.8   65.0   9.12  .0751    0.000   212    5    100.0   10 
 1/20/18  3:20a   48.3   48.5   48.3    87   44.6   6.0    SW   1.00  10.0     S   45.7   48.4   45.8   43.1  30.133  0.00  0.00     0     0.00      0     0.0  0.00   0.0   0.116   0.000   66.6    49   46.8   65.0   9.12  .0751    0.000   212    5    100.0   10 
 1/20/18  3:30a   48.5   48.5   48.3    87   44.8   7.0    SW   1.17  11.0     S   45.4   48.6   45.5   42.8  30.131  0.00  0.00     0     0.00      0     0.0  0.00   0.0   0.115   0.000   66.5    49   46.7   64.9   9.12  .0751    0.000   213    5    100.0   10 
 1/20/18  3:40a   47.6   48.5   47.6    87   43.9   3.0   SSE   0.50   9.0   WSW   47.0   47.7   47.1   44.4  30.133  0.00  0.00     0     0.00      0     0.0  0.00   0.0   0.121   0.000   66.4    49   46.7   64.8   9.12  .0752    0.000   211    5    100.0   10 
 1/20/18  3:50a   47.0   47.6   46.7    89   43.9   2.0   SSW   0.33   6.0     S   47.0   47.2   47.2   44.5  30.134  0.00  0.00     0     0.00      0     0.0  0.00   0.0   0.125   0.000   66.4    49   46.7   64.8   9.12  .0752    0.000   211    5    100.0   10 
 1/20/18  4:00a   47.2   47.7   47.1    88   43.8   2.0   SSE   0.33   7.0   SSE   47.2   47.3   47.3   44.6  30.134  0.00  0.00     0     0.00      0     0.0  0.00   0.0   0.124   0.000   66.3    49   46.6   64.7   9.12  .0752    0.001   209    5    100.0   10 
 1/20/18  4:10a   47.3   47.3   47.0    89   44.2   2.0     S   0.33   6.0   SSW   47.3   47.5   47.5   44.8  30.134  0.00  0.00     0     0.00      0     0.0  0.00   0.0   0.123   0.000   66.3    49   46.6   64.7   9.12  .0752    0.000   212    5    100.0   10 
 1/20/18  4:20a   46.7   47.2   46.6    90   43.9   2.0     S   0.33   6.0   SSE   46.7   46.9   46.9   44.2  30.136  0.00  0.00     0     0.00      0     0.0  0.00   0.0   0.127   0.000   66.2    49   46.5   64.5   9.13  .0752    0.000   209    5    100.0   10 
 1/20/18  4:30a   46.7   46.7   46.3    90   43.9   2.0     S   0.33   6.0   SSE   46.7   46.9   46.9   44.2  30.138  0.00  0.00     0     0.00      0     0.0  0.00   0.0   0.127   0.000   66.2    49   46.5   64.5   9.13  .0752    0.000   211    5    100.0   10 
 1/20/18  4:40a   46.3   46.8   46.2    90   43.5   2.0     S   0.33   7.0   SSW   46.3   46.4   46.4   43.7  30.139  0.00  0.00     0     0.00      0     0.0  0.00   0.0   0.130   0.000   66.1    49   46.4   64.4   9.13  .0752    0.000   213    5    100.0   10 
 1/20/18  4:50a   46.1   46.3   46.1    90   43.3   1.0     S   0.17   4.0   SSE   46.1   46.2   46.2   43.5  30.138  0.00  0.00     0     0.00      0     0.0  0.00   0.0   0.131   0.000   66.0    49   46.3   64.3   9.13  .0752    0.000   211    5    100.0   10 
 1/20/18  5:00a   46.0   46.1   45.9    90   43.2   2.0     S   0.33   5.0   SSW   46.0   46.1   46.1   43.4  30.139  0.00  0.00     0     0.00      0     0.0  0.00   0.0   0.132   0.000   66.0    49   46.3   64.3   9.13  .0752    0.000   208    5    100.0   10 
 1/20/18  5:10a   46.1   46.1   45.8    91   43.6   1.0     S   0.17   5.0     S   46.1   46.2   46.2   43.5  30.141  0.00  0.00     0     0.00      0     0.0  0.00   0.0   0.131   0.000   65.9    49   46.2   64.2   9.13  .0753    0.000   213    5    100.0   10 
 1/20/18  5:20a   45.8   46.2   45.8    91   43.3   1.0     S   0.17   4.0     S   45.8   45.9   45.9   43.2  30.138  0.00  0.00     0     0.00      0     0.0  0.00   0.0   0.133   0.000   65.8    49   46.1   64.1   9.13  .0753    0.000   210    5    100.0   10 
 1/20/18  5:30a   45.9   45.9   45.8    91   43.4   1.0     S   0.17   6.0     S   45.9   46.0   46.0   43.3  30.142  0.01  0.00     0     0.00      0     0.0  0.00   0.0   0.133   0.000   65.8    49   46.1   64.1   9.13  .0753    0.000   212    5    100.0   10 
 1/20/18  5:40a   47.6   47.6   45.9    92   45.4   6.0    SW   1.00  11.0   WSW   44.8   47.9   45.1   42.4  30.144  0.00  0.00     0     0.00      0     0.0  0.00   0.0   0.121   0.000   65.7    49   46.0   64.0   9.14  .0753    0.000   213    5    100.0   10 
 1/20/18  5:50a   48.4   48.4   47.7    90   45.6   6.0    SW   1.00  13.0     W   45.8   48.6   46.0   43.3  30.141  0.00  0.00     0     0.00      0     0.0  0.00   0.0   0.115   0.000   65.7    49   46.0   64.0   9.14  .0753    0.000   212    5    100.0   10 
 1/20/18  6:00a   47.4   48.4   47.3    90   44.6   2.0     S   0.33   8.0    SW   47.4   47.6   47.6   44.9  30.143  0.00  0.00     0     0.00      0     0.0  0.00   0.0   0.122   0.000   65.7    49   46.0   64.0   9.14  .0753    0.000   212    5    100.0   10 
 1/20/18  6:10a   47.7   47.7   47.2    91   45.2   6.0   SSW   1.00  14.0     W   44.9   47.9   45.1   42.4  30.146  0.02  0.51     0     0.00      0     0.0  0.00   0.0   0.120   0.000   65.6    49   45.9   63.9   9.14  .0753    0.000   213    5    100.0   10 
 1/20/18  6:20a   48.3   48.3   47.8    91   45.8  10.0   SSW   1.67  17.0   SSE   43.3   48.6   43.6   41.2  30.146  0.01  0.35     0     0.00      0     0.0  0.00   0.0   0.116   0.000   65.6    49   45.9   63.9   9.14  .0753    0.000   212    5    100.0   10 
 1/20/18  6:30a   48.5   48.6   48.3    90   45.7  10.0   SSW   1.67  16.0   WSW   43.6   48.8   43.9   41.5  30.149  0.00  0.00     0     0.00      0     0.0  0.00   0.0   0.115   0.000   65.5    49   45.8   63.8   9.14  .0754    0.000   211    5    100.0   10 
 1/20/18  6:40a   48.4   48.7   48.4    89   45.3  10.0   SSW   1.67  15.0   SSE   43.4   48.6   43.6   41.2  30.151  0.00  0.00     0     0.00      0     0.0  0.00   0.0   0.115   0.000   65.4    49   45.7   63.6   9.14  .0754    0.000   211    5    100.0   10 
 1/20/18  6:50a   49.0   49.0   48.3    90   46.2  10.0   SSW   1.67  14.0   SSW   44.1   49.3   44.4   42.1  30.151  0.00  0.00     0     0.00      0     0.0  0.00   0.0   0.111   0.000   65.4    49   45.7   63.6   9.14  .0754    0.000   212    5    100.0   10 
 1/20/18  7:00a   48.9   49.0   48.8    89   45.8   9.0   SSW   1.50  13.0    SW   44.6   49.2   44.9   42.4  30.151  0.00  0.00     0     0.00      0     0.0  0.00   0.0   0.112   0.000   65.4    49   45.7   63.6   9.14  .0754    0.001   213    5    100.0   10 
 1/20/18  7:10a   49.0   49.0   48.9    89   45.9   7.0   SSW   1.17  12.0     S   46.0   49.3   46.3   43.6  30.151  0.00  0.00     0     0.00      0     0.0  0.00   0.0   0.111   0.000   65.3    49   45.6   63.5   9.14  .0754    0.000   212    5    100.0   10 
 1/20/18  7:20a   47.4   48.9   47.4    88   44.0   1.0     S   0.17   4.0     S   47.4   47.5   47.5   44.8  30.151  0.00  0.00     0     0.00      0     0.0  0.00   0.0   0.122   0.000   65.2    49   45.5   63.4   9.15  .0754    0.000   211    5    100.0   10 
 1/20/18  7:30a   46.9   47.4   46.9    89   43.8   2.0     S   0.33   5.0     S   46.9   47.1   47.1   44.4  30.149  0.00  0.00     0     0.00      0     0.0  0.00   0.0   0.126   0.000   65.2    49   45.5   63.4   9.15  .0754    0.000   213    5    100.0   10 
 1/20/18  7:40a   46.5   46.9   46.5    89   43.4   1.0     S   0.17   4.0   SSE   46.5   46.6   46.6   43.9  30.146  0.00  0.00     0     0.00      0     0.0  0.00   0.0   0.128   0.000   65.2    49   45.5   63.4   9.15  .0754    0.000   211    5    100.0   10 
 1/20/18  7:50a   46.3   46.5   46.3    90   43.5   1.0     S   0.17   5.0    SE   46.3   46.4   46.4   43.8  30.146  0.00  0.00     4     0.06      5     0.0  0.00   0.0   0.130   0.000   65.2    50   46.1   63.5   9.35  .0754    0.000   211    5    100.0   10 
 1/20/18  8:00a   46.6   46.6   46.3    91   44.1   3.0     S   0.50  10.0     S   45.9   46.8   46.1   43.6  30.148  0.00  0.00    10     0.14     14     0.0  0.00   0.0   0.128   0.000   65.3    50   46.2   63.6   9.34  .0754    0.000   212    5    100.0   10 
 1/20/18  8:10a   47.0   47.1   46.4    90   44.2   4.0     S   0.67  10.0   SSE   45.4   47.2   45.6   43.2  30.153  0.00  0.00    12     0.17     14     0.0  0.00   0.0   0.125   0.000   65.4    50   46.3   63.7   9.34  .0754    0.000   211    5    100.0   10 
 1/20/18  8:20a   47.1   47.3   46.9    90   44.3   6.0     S   1.00  14.0   SSE   44.2   47.3   44.4   42.1  30.153  0.00  0.00    16     0.23     26     0.0  0.00   0.0   0.124   0.000   65.6    50   46.5   64.0   9.34  .0753    0.000   213    5    100.0   10 
 1/20/18  8:30a   46.7   47.0   46.5    90   43.9   5.0     S   0.83  10.0     S   44.3   46.9   44.5   43.0  30.154  0.00  0.00    52     0.75     62     0.0  0.00   0.0   0.127   0.000   65.7    50   46.5   64.1   9.34  .0753    0.000   212    5    100.0   10 
 1/20/18  8:40a   47.2   47.2   46.6    90   44.4   5.0     S   0.83   9.0     S   44.9   47.4   45.1   43.8  30.158  0.00  0.00    57     0.82     69     0.0  0.00   0.0   0.124   0.000   65.9    51   47.3   64.4   9.53  .0753    0.000   212    5    100.0   10 
 1/20/18  8:50a   46.9   47.4   46.9    90   44.1   4.0     S   0.67  10.0   SSW   45.3   47.1   45.5   43.4  30.163  0.00  0.00    25     0.36     35     0.0  0.00   0.0   0.126   0.000   66.1    51   47.4   64.6   9.53  .0753    0.000   212    5    100.0   10 
 1/20/18  9:00a   46.9   47.3   46.9    90   44.1   5.0     S   0.83  11.0     S   44.6   47.1   44.8   42.9  30.162  0.00  0.00    35     0.50     46     0.0  0.00   0.0   0.126   0.000   66.3    51   47.6   64.9   9.52  .0752    0.001   213    5    100.0   10 
 1/20/18  9:10a   46.5   46.8   46.4    90   43.7   6.0     S   1.00  11.0     S   43.5   46.7   43.7   44.2  30.162  0.00  0.00    59     0.85     67     0.0  0.00   0.0   0.128   0.000   66.6    51   47.9   65.2   9.52  .0752    0.000   212    5    100.0   10 
 1/20/18  9:20a   46.7   46.7   46.5    90   43.9   5.0     S   0.83  11.0   SSE   44.3   46.9   44.5   45.7  30.160  0.00  0.00    77     1.10     86     0.0  0.00   0.0   0.127   0.000   66.8    51   48.1   65.5   9.51  .0751    0.000   213    5    100.0   10 
 1/20/18  9:30a   46.8   46.8   46.7    90   44.0   6.0     S   1.00  17.0   SSE   43.9   47.0   44.1   45.0  30.166  0.00  0.00    68     0.97     77     0.0  0.00   0.0   0.126   0.000   67.1    52   48.9   65.9   9.71  .0751    0.000   213    5    100.0   10 
 1/20/18  9:40a   47.1   47.2   46.8    89   44.0   7.0     S   1.17  13.0    SW   43.7   47.3   43.9   45.3  30.167  0.00  0.00    80     1.15    113     0.0  0.00   0.0   0.124   0.000   67.3    51   48.5   66.0   9.50  .0751    0.000   211    5    100.0   10 
 1/20/18  9:50a   47.4   47.4   47.1    88   44.0   8.0     S   1.33  15.0   SSW   43.4   47.5   43.5   45.8  30.174  0.00  0.00   106     1.52    113     0.0  0.00   0.0   0.122   0.000   67.4    51   48.6   66.1   9.50  .0751    0.000   211    5    100.0   10 
 1/20/18 10:00a   47.7   47.7   47.3    89   44.6   7.0     S   1.17  14.0     S   44.4   47.9   44.6   47.4  30.174  0.00  0.00   117     1.68    149     0.0  0.00   0.0   0.120   0.000   67.5    51   48.7   66.3   9.50  .0750    0.002   214    5    100.0   10 
 1/20/18 10:10a   47.6   47.9   47.6    89   44.5   8.0     S   1.33  16.0     S   43.6   47.8   43.8   45.5  30.175  0.00  0.00    93     1.33    134     0.0  0.00   0.0   0.121   0.000   67.7    51   48.9   66.5   9.50  .0750    0.000   210    5    100.0   10 
 1/20/18 10:20a   47.8   47.9   47.6    89   44.7   8.0     S   1.33  14.0     S   43.9   48.0   44.1   46.7  30.177  0.00  0.00   118     1.69    162     0.0  0.00   0.0   0.119   0.000   67.8    51   49.0   66.6   9.49  .0750    0.000   212    5    100.0   10 
 1/20/18 10:30a   47.9   47.9   47.8    89   44.8   8.0     S   1.33  14.0   SSW   44.0   48.1   44.2   48.1  30.176  0.00  0.00   158     2.26    232     0.0  0.00   0.0   0.119   0.000   67.9    51   49.1   66.7   9.49  .0750    0.000   214    5    100.0   10 
 1/20/18 10:40a   48.0   48.2   47.9    89   44.9   7.0     S   1.17  15.0   SSW   44.8   48.2   45.0   47.0  30.178  0.00  0.00   101     1.45    181     0.0  0.00   0.0   0.118   0.000   68.0    51   49.2   66.8   9.49  .0750    0.000   213    5    100.0   10 
 1/20/18 10:50a   48.1   48.1   47.8    89   45.0   9.0     S   1.50  15.0   SSE   43.6   48.3   43.8   46.8  30.178  0.01  0.00   137     1.96    178     0.0  0.00   0.0   0.117   0.000   68.0    51   49.2   66.8   9.49  .0750    0.000   210    5    100.0   10 
 1/20/18 11:00a   48.3   48.3   48.0    89   45.2   9.0     S   1.50  15.0   SSE   43.9   48.5   44.1   48.2  30.177  0.00  0.00   173     2.48    181     0.0  0.00   0.0   0.116   0.000   68.1    51   49.3   66.9   9.49  .0750    0.003   211    5    100.0   10 
 1/20/18 11:10a   48.4   48.4   48.2    89   45.3   8.0     S   1.33  19.0     S   44.6   48.6   44.8   48.4  30.174  0.00  0.00   156     2.24    188     0.0  0.00   0.0   0.115   0.000   68.1    51   49.3   66.9   9.49  .0749    0.000   212    5    100.0   10 
 1/20/18 11:20a   48.4   48.4   48.2    88   45.0   9.0     S   1.50  17.0     S   44.0   48.6   44.2   48.5  30.172  0.00  0.00   182     2.61    306     0.0  0.00   0.0   0.115   0.000   68.2    51   49.4   67.0   9.49  .0749    0.000   210    5    100.0   10 
 1/20/18 11:30a   48.4   48.5   48.2    89   45.3  10.0     S   1.67  17.0   SSW   43.4   48.6   43.6   47.5  30.167  0.00  0.00   175     2.51    214     0.0  0.00   0.0   0.115   0.000   68.2    51   49.4   67.0   9.49  .0749    0.000   213    5    100.0   10 
 1/20/18 11:40a   48.4   48.4   48.0    88   45.0   8.0     S   1.33  15.0     S   44.6   48.6   44.8   48.2  30.161  0.00  0.00   152     2.18    571     0.0  0.00   0.0   0.115   0.000   68.2    51   49.4   67.0   9.49  .0749    0.000   210    5    100.0   10 
 1/20/18 11:50a   49.0   49.0   48.4    86   45.0  10.0     S   1.67  19.0   SSW   44.1   49.1   44.2   51.2  30.160  0.00  0.00   335     4.80    492     0.0  0.00   0.0   0.111   0.000   68.3    51   49.5   67.1   9.48  .0749    0.000   213    5    100.0   10 
 1/20/18 12:00p   48.8   49.2   48.8    86   44.8  11.0     S   1.83  19.0   SSE   43.4   48.9   43.5   45.5  30.160  0.00  0.00   119     1.71    141     0.0  0.00   0.0   0.113   0.000   68.3    51   49.5   67.1   9.48  .0749    0.004   214    5    100.0   10 
 1/20/18 12:10p   48.7   48.9   48.6    87   45.0   9.0     S   1.50  17.0     S   44.3   48.9   44.5   47.3  30.156  0.00  0.00   137     1.96    162     0.0  0.00   0.0   0.113   0.000   68.4    50   49.0   67.1   9.28  .0749    0.000   212    5    100.0   10 
 1/20/18 12:20p   48.7   48.7   48.6    88   45.3   9.0   SSW   1.50  21.0   SSW   44.3   48.9   44.5   49.2  30.151  0.00  0.00   203     2.91    350     0.0  0.00   0.0   0.113   0.000   68.4    50   49.0   67.1   9.28  .0749    0.000   211    5    100.0   10 
 1/20/18 12:30p   49.1   49.1   48.7    87   45.4   9.0     S   1.50  19.0   WSW   44.8   49.3   45.0   53.2  30.148  0.00  0.00   364     5.22    582     0.0  0.00   0.0   0.110   0.000   68.4    50   49.0   67.1   9.28  .0748    0.000   212    5    100.0   10 
 1/20/18 12:40p   49.2   49.3   49.0    87   45.5   9.0     S   1.50  17.0   SSE   44.9   49.4   45.1   50.7  30.147  0.00  0.00   230     3.30    260     0.0  0.00   0.0   0.110   0.000   68.4    50   49.0   67.1   9.28  .0748    0.000   212    5    100.0   10 
 1/20/18 12:50p   49.0   49.3   49.0    87   45.3  12.0     S   2.00  22.0     S   43.2   49.2   43.4   46.8  30.149  0.00  0.00   169     2.42    265     0.0  0.00   0.0   0.111   0.000   68.5    51   49.7   67.2   9.48  .0748    0.000   212    5    100.0   10 
 1/20/18  1:00p   49.1   49.2   49.0    87   45.4  13.0   SSW   2.17  25.0     S   42.8   49.3   43.0   45.9  30.143  0.00  0.00   151     2.16    197     0.0  0.00   0.0   0.110   0.000   68.6    51   49.7   67.3   9.48  .0748    0.005   212    5    100.0   10 
 1/20/18  1:10p   49.1   49.3   49.0    87   45.4  13.0     S   2.17  31.0   SSE   42.8   49.3   43.0   46.2  30.141  0.01  0.00   162     2.32    186     0.0  0.00   0.0   0.110   0.000   68.6    51   49.7   67.3   9.48  .0748    0.000   212    5    100.0   10 
 1/20/18  1:20p   49.1   49.1   48.9    88   45.7  10.0   SSW   1.67  24.0     S   44.2   49.3   44.4   49.6  30.135  0.00  0.00   218     3.13    297     0.0  0.00   0.0   0.110   0.000   68.6    51   49.7   67.3   9.48  .0748    0.000   211    5    100.0   10 
 1/20/18  1:30p   49.3   49.4   49.1    88   45.9  11.0     S   1.83  23.0   SSW   44.0   49.5   44.2   48.0  30.137  0.00  0.00   172     2.47    288     0.0  0.00   0.0   0.109   0.000   68.6    51   49.7   67.3   9.48  .0748    0.000   214    5    100.0   10 
 1/20/18  1:40p   49.3   49.4   49.0    88   45.9  11.0     S   1.83  25.0   SSE   44.0   49.5   44.2   48.3  30.131  0.00  0.00   181     2.59    255     0.0  0.00   0.0   0.109   0.000   68.7    50   49.3   67.3   9.28  .0747    0.000   213    5    100.0   10 
 1/20/18  1:50p   49.5   49.5   49.2    88   46.1  11.0     S   1.83  25.0     S   44.2   49.7   44.4   47.6  30.127  0.00  0.00   147     2.11    181     0.0  0.00   0.0   0.108   0.000   68.7    51   49.8   67.4   9.48  .0747    0.000   213    5    100.0   10 
 1/20/18  2:00p   49.2   49.5   49.2    87   45.5  11.0     S   1.83  24.0     S   43.8   49.4   44.0   45.9  30.132  0.00  0.00   103     1.48    141     0.0  0.00   0.0   0.110   0.000   68.8    51   49.9   67.5   9.47  .0747    0.004   213    5    100.0   10 
 1/20/18  2:10p   48.8   49.2   48.8    89   45.7  11.0     S   1.83  21.0   SSE   43.4   49.0   43.6   46.1  30.131  0.00  0.00   123     1.76    139     0.0  0.00   0.0   0.113   0.000   68.8    51   49.9   67.5   9.47  .0747    0.000   211    5    100.0   10 
 1/20/18  2:20p   48.5   48.8   48.5    89   45.4  10.0     S   1.67  16.0     S   43.6   48.7   43.8   46.4  30.133  0.00  0.00   122     1.75    148     0.0  0.00   0.0   0.115   0.000   68.9    51   50.0   67.6   9.47  .0747    0.000   213    5    100.0   10 
 1/20/18  2:30p   48.3   48.6   48.3    90   45.5   9.0     S   1.50  20.0     S   43.9   48.5   44.1   45.7  30.133  0.00  0.00    88     1.26    116     0.0  0.00   0.0   0.116   0.000   68.9    51   50.0   67.6   9.47  .0747    0.000   212    5    100.0   10 
 1/20/18  2:40p   48.4   48.5   48.3    90   45.6   9.0     S   1.50  17.0     S   44.0   48.6   44.2   45.2  30.134  0.01  0.00    73     1.05     81     0.0  0.00   0.0   0.115   0.000   69.0    51   50.1   67.7   9.47  .0747    0.000   212    5    100.0   10 
 1/20/18  2:50p   48.8   48.9   48.4    91   46.3  10.0   SSW   1.67  16.0   SSE   43.9   49.1   44.2   44.0  30.135  0.03  0.81    40     0.57     60     0.0  0.00   0.0   0.113   0.000   69.0    51   50.1   67.7   9.47  .0747    0.000   212    5    100.0   10 
 1/20/18  3:00p   48.4   48.8   48.2    91   45.9  12.0     S   2.00  21.0   SSE   42.5   48.7   42.8   43.4  30.134  0.00  0.04    61     0.87     72     0.0  0.00   0.0   0.115   0.000   69.0    51   50.1   67.7   9.47  .0747    0.002   212    5    100.0   10 
 1/20/18  3:10p   48.6   48.7   48.4    90   45.8  11.0     S   1.83  20.0   SSE   43.2   48.9   43.5   44.0  30.135  0.00  0.00    59     0.85     74     0.0  0.00   0.0   0.114   0.000   69.0    51   50.1   67.7   9.47  .0747    0.000   213    5    100.0   10 
 1/20/18  3:20p   48.8   48.9   48.7    90   46.0  12.0     S   2.00  23.0     S   43.0   49.1   43.3   41.9  30.137  0.00  0.00    51     0.73     62     0.0  0.00   0.0   0.113   0.000   69.1    51   50.2   67.8   9.47  .0747    0.000   212    5    100.0   10 
 1/20/18  3:30p   48.8   48.9   48.8    90   46.0  11.0     S   1.83  20.0     S   43.4   49.1   43.7   42.9  30.134  0.00  0.00    84     1.20    104     0.0  0.00   0.0   0.113   0.000   69.1    51   50.2   67.8   9.47  .0747    0.000   212    5    100.0   10 
 1/20/18  3:40p   49.2   49.2   48.8    89   46.1  12.0     S   2.00  25.0   SSE   43.4   49.5   43.7   42.4  30.136  0.00  0.00    56     0.80    104     0.0  0.00   0.0   0.110   0.000   69.1    50   49.7   67.7   9.27  .0747    0.000   213    5    100.0   10 
 1/20/18  3:50p   49.1   49.2   49.1    89   46.0  11.0     S   1.83  21.0     S   43.7   49.4   44.0   43.0  30.132  0.00  0.00    72     1.03    105     0.0  0.00   0.0   0.110   0.000   69.2    50   49.8   67.7   9.27  .0747    0.000   212    5    100.0   10 
 1/20/18  4:00p   49.3   49.4   49.1    88   45.9  11.0     S   1.83  23.0     S   44.0   49.5   44.2   42.5  30.131  0.00  0.00    39     0.56     53     0.0  0.00   0.0   0.109   0.000   69.2    50   49.8   67.7   9.27  .0747    0.002   211    5    100.0   10 
 1/20/18  4:10p   49.2   49.4   49.2    87   45.5  10.0     S   1.67  19.0     S   44.3   49.4   44.5   42.8  30.128  0.00  0.00    45     0.65     51     0.0  0.00   0.0   0.110   0.000   69.2    50   49.8   67.7   9.27  .0747    0.000   213    5    100.0   10 
 1/20/18  4:20p   49.1   49.3   49.1    87   45.4  10.0     S   1.67  21.0   SSW   44.2   49.3   44.4   42.3  30.128  0.00  0.00    20     0.29     25     0.0  0.00   0.0   0.110   0.000   69.2    50   49.8   67.7   9.27  .0747    0.000   214    5    100.0   10 
 1/20/18  4:30p   49.1   49.2   49.0    86   45.1  11.0     S   1.83  22.0     S   43.7   49.2   43.8   41.7  30.127  0.00  0.00    19     0.27     21     0.0  0.00   0.0   0.110   0.000   69.2    50   49.8   67.7   9.27  .0747    0.000   210    5    100.0   10 
 1/20/18  4:40p   49.1   49.1   49.0    86   45.1  10.0     S   1.67  19.0     S   44.2   49.2   44.3   42.0  30.122  0.00  0.00    14     0.20     16     0.0  0.00   0.0   0.110   0.000   69.2    50   49.8   67.7   9.27  .0746    0.000   210    5    100.0   10 
 1/20/18  4:50p   49.1   49.1   49.0    85   44.8  10.0     S   1.67  23.0   SSE   44.2   49.2   44.3   42.0  30.119  0.00  0.00    12     0.17     12     0.0  0.00   0.0   0.110   0.000   69.2    50   49.8   67.7   9.27  .0746    0.000   212    5    100.0   10 
 1/20/18  5:00p   49.3   49.3   49.1    84   44.7   9.0     S   1.50  17.0     S   45.1   49.4   45.2   42.6  30.124  0.00  0.00     5     0.07     11     0.0  0.00   0.0   0.109   0.000   69.2    50   49.8   67.7   9.27  .0746    0.001   212    5    100.0   10 
 1/20/18  5:10p   49.4   49.4   49.3    84   44.8  10.0     S   1.67  19.0     S   44.6   49.5   44.7   42.1  30.123  0.00  0.00     0     0.00      0     0.0  0.00   0.0   0.108   0.000   69.2    50   49.8   67.7   9.27  .0746    0.000   208    5    100.0   10 
 1/20/18  5:20p   49.4   49.4   49.4    83   44.5   9.0     S   1.50  18.0   SSE   45.2   49.4   45.2   42.6  30.124  0.00  0.00     0     0.00      0     0.0  0.00   0.0   0.108   0.000   69.2    50   49.8   67.7   9.27  .0746    0.000   213    5    100.0   10 
 1/20/18  5:30p   49.4   49.4   49.3    83   44.5   8.0     S   1.33  23.0     N   45.8   49.4   45.8   43.0  30.120  0.00  0.00     0     0.00      0     0.0  0.00   0.0   0.108   0.000   69.2    50   49.8   67.7   9.27  .0746    0.000   211    5    100.0   10 
 1/20/18  5:40p   49.5   49.5   49.3    82   44.2   9.0     S   1.50  19.0     S   45.3   49.5   45.3   42.7  30.119  0.00  0.00     0     0.00      0     0.0  0.00   0.0   0.108   0.000   69.2    50   49.8   67.7   9.27  .0746    0.000   211    5    100.0   10 
 1/20/18  5:50p   49.5   49.5   49.4    82   44.2   9.0     S   1.50  18.0   SSW   45.3   49.5   45.3   42.7  30.114  0.00  0.00     0     0.00      0     0.0  0.00   0.0   0.108   0.000   69.2    50   49.8   67.7   9.27  .0746    0.000   213    5    100.0   10 
 1/20/18  6:00p   49.4   49.5   49.4    82   44.1  10.0     S   1.67  19.0     S   44.6   49.4   44.6   42.0  30.114  0.00  0.00     0     0.00      0     0.0  0.00   0.0   0.108   0.000   69.2    50   49.8   67.7   9.27  .0746    0.001   212    5    100.0   10 
 1/20/18  6:10p   49.3   49.4   49.3    81   43.7   9.0     S   1.50  21.0   SSE   45.1   49.3   45.1   42.4  30.116  0.00  0.00     0     0.00      0     0.0  0.00   0.0   0.109   0.000   69.1    50   49.7   67.7   9.27  .0746    0.000   211    5    100.0   10 
 1/20/18  6:20p   49.3   49.5   49.3    81   43.7  10.0     S   1.67  24.0     S   44.5   49.3   44.5   41.9  30.116  0.00  0.00     0     0.00      0     0.0  0.00   0.0   0.109   0.000   69.1    50   49.7   67.7   9.27  .0746    0.000   213    5    100.0   10 
 1/20/18  6:30p   49.4   49.4   49.3    80   43.5  11.0     S   1.83  22.0   SSE   44.1   49.3   44.0   41.5  30.109  0.00  0.00     0     0.00      0     0.0  0.00   0.0   0.108   0.000   69.1    50   49.7   67.7   9.27  .0746    0.000   211    5    100.0   10 
 1/20/18  6:40p   49.3   49.5   49.3    80   43.4   9.0     S   1.50  22.0     S   45.1   49.2   45.0   42.3  30.106  0.00  0.00     0     0.00      0     0.0  0.00   0.0   0.109   0.000   69.1    50   49.7   67.7   9.27  .0746    0.000   212    5    100.0   10 
 1/20/18  6:50p   49.3   49.4   49.3    80   43.4  10.0     S   1.67  25.0     S   44.5   49.2   44.4   41.8  30.105  0.00  0.00     0     0.00      0     0.0  0.00   0.0   0.109   0.000   69.0    50   49.6   67.6   9.27  .0746    0.000   213    5    100.0   10 
 1/20/18  7:00p   49.4   49.5   49.3    78   42.8  11.0     S   1.83  19.0     S   44.1   49.3   44.0   41.5  30.103  0.00  0.00     0     0.00      0     0.0  0.00   0.0   0.108   0.000   69.1    50   49.7   67.7   9.27  .0746    0.001   212    5    100.0   10 
 1/20/18  7:10p   49.5   49.5   49.4    78   42.9   9.0     S   1.50  26.0     S   45.3   49.4   45.2   42.5  30.099  0.00  0.00     0     0.00      0     0.0  0.00   0.0   0.108   0.000   69.0    50   49.6   67.6   9.27  .0746    0.000   212    5    100.0   10 
 1/20/18  7:20p   49.5   49.6   49.4    77   42.6  10.0     S   1.67  20.0     S   44.7   49.3   44.5   41.9  30.100  0.00  0.00     0     0.00      0     0.0  0.00   0.0   0.108   0.000   69.0    50   49.6   67.6   9.27  .0746    0.000   212    5    100.0   10 
 1/20/18  7:30p   49.2   49.5   49.1    78   42.6   9.0     S   1.50  18.0     S   44.9   49.0   44.7   42.0  30.097  0.00  0.00     0     0.00      0     0.0  0.00   0.0   0.110   0.000   69.0    50   49.6   67.6   9.27  .0746    0.000   213    5    100.0   10 
 1/20/18  7:40p   49.5   49.5   49.1    77   42.6  10.0     S   1.67  19.0   SSW   44.7   49.3   44.5   41.9  30.090  0.00  0.00     0     0.00      0     0.0  0.00   0.0   0.108   0.000   69.0    50   49.6   67.6   9.27  .0746    0.000   213    5    100.0   10 
 1/20/18  7:50p   49.4   49.5   49.4    77   42.5   7.0     S   1.17  15.0     S   46.5   49.2   46.3   43.3  30.087  0.00  0.00     0     0.00      0     0.0  0.00   0.0   0.108   0.000   69.0    50   49.6   67.6   9.27  .0746    0.000   209    5    100.0   10 
 1/20/18  8:00p   49.6   49.6   49.4    76   42.3  10.0     S   1.67  22.0     S   44.8   49.4   44.6   42.0  30.079  0.00  0.00     0     0.00      0     0.0  0.00   0.0   0.107   0.000   68.9    50   49.5   67.5   9.27  .0746    0.002   212    5    100.0   10 
 1/20/18  8:10p   49.9   49.9   49.6    75   42.3  11.0     S   1.83  23.0     S   44.7   49.7   44.5   42.0  30.077  0.00  0.00     0     0.00      0     0.0  0.00   0.0   0.105   0.000   68.8    50   49.4   67.4   9.27  .0746    0.000   211    5    100.0   10 
 1/20/18  8:20p   50.0   50.0   49.9    74   42.0  10.0     S   1.67  24.0     S   45.3   49.8   45.1   42.5  30.074  0.00  0.00     0     0.00      0     0.0  0.00   0.0   0.104   0.000   68.8    50   49.4   67.4   9.27  .0746    0.000   213    5    100.0   10 
 1/20/18  8:30p   50.0   50.0   49.8    74   42.0   9.0     S   1.50  19.0   SSE   45.9   49.8   45.7   43.0  30.073  0.00  0.00     0     0.00      0     0.0  0.00   0.0   0.104   0.000   68.8    50   49.4   67.4   9.27  .0746    0.000   212    5    100.0   10 
 1/20/18  8:40p   49.9   50.0   49.8    74   41.9  11.0     S   1.83  21.0     S   44.7   49.7   44.5   42.0  30.071  0.00  0.00     0     0.00      0     0.0  0.00   0.0   0.105   0.000   68.7    50   49.3   67.3   9.28  .0746    0.000   212    5    100.0   10 
 1/20/18  8:50p   50.1   50.1   49.8    73   41.8  13.0     S   2.17  26.0   SSE   44.0   49.8   43.7   41.3  30.066  0.00  0.00     0     0.00      0     0.0  0.00   0.0   0.103   0.000   68.6    50   49.2   67.2   9.28  .0746    0.000   214    5    100.0   10 
 1/20/18  9:00p   50.1   50.1   50.0    73   41.8  10.0     S   1.67  23.0     S   45.4   49.8   45.1   42.5  30.074  0.00  0.00     0     0.00      0     0.0  0.00   0.0   0.103   0.000   68.6    50   49.2   67.2   9.28  .0746    0.002   212    5    100.0   10 
 1/20/18  9:10p   50.2   50.2   49.9    74   42.2  11.0   SSW   1.83  23.0     S   45.0   49.9   44.7   42.2  30.065  0.00  0.00     0     0.00      0     0.0  0.00   0.0   0.103   0.000   68.5    50   49.1   67.1   9.28  .0746    0.000   212    5    100.0   10 
 1/20/18  9:20p   50.6   50.6   50.2    73   42.3  13.0     S   2.17  29.0   SSE   44.6   50.3   44.3   41.9  30.060  0.00  0.00     0     0.00      0     0.0  0.00   0.0   0.100   0.000   68.4    50   49.0   67.1   9.28  .0746    0.000   214    5    100.0   10 
 1/20/18  9:30p   50.7   50.7   50.5    74   42.7  14.0     S   2.33  27.0     S   44.3   50.4   44.0   41.7  30.063  0.00  0.00     0     0.00      0     0.0  0.00   0.0   0.099   0.000   68.3    50   48.9   67.0   9.28  .0746    0.000   212    5    100.0   10 
 1/20/18  9:40p   50.7   50.8   50.6    74   42.7  13.0     S   2.17  27.0     S   44.7   50.4   44.4   42.0  30.058  0.00  0.00     0     0.00      0     0.0  0.00   0.0   0.099   0.000   68.3    50   48.9   67.0   9.28  .0746    0.000   212    5    100.0   10 
 1/20/18  9:50p   50.5   50.7   50.4    74   42.5  12.0     S   2.00  27.0   SSW   44.8   50.2   44.5   42.0  30.055  0.00  0.00     0     0.00      0     0.0  0.00   0.0   0.101   0.000   68.2    50   48.8   66.9   9.29  .0746    0.000   214    5    100.0   10 
 1/20/18 10:00p   50.7   50.7   50.5    73   42.4  14.0     S   2.33  27.0     S   44.3   50.3   43.9   41.6  30.054  0.00  0.00     0     0.00      0     0.0  0.00   0.0   0.099   0.000   68.2    50   48.8   66.9   9.29  .0746    0.002   212    5    100.0   10 
 1/20/18 10:10p   50.8   50.9   50.7    73   42.5  13.0     S   2.17  27.0     S   44.8   50.4   44.4   42.0  30.056  0.00  0.00     0     0.00      0     0.0  0.00   0.0   0.099   0.000   68.1    49   48.2   66.7   9.09  .0747    0.000   212    5    100.0   10 
 1/20/18 10:20p   50.9   50.9   50.8    73   42.6  13.0     S   2.17  30.0     S   44.9   50.5   44.5   42.1  30.056  0.00  0.00     0     0.00      0     0.0  0.00   0.0   0.098   0.000   68.0    49   48.1   66.6   9.09  .0747    0.000   212    5    100.0   10 
 1/20/18 10:30p   50.9   50.9   50.8    72   42.2  14.0     S   2.33  30.0   SSW   44.6   50.5   44.2   41.9  30.048  0.00  0.00     0     0.00      0     0.0  0.00   0.0   0.098   0.000   67.9    49   48.0   66.5   9.09  .0747    0.000   211    5    100.0   10 
 1/20/18 10:40p   51.0   51.1   50.9    72   42.3  13.0     S   2.17  30.0   SSW   45.0   50.6   44.6   42.2  30.054  0.00  0.00     0     0.00      0     0.0  0.00   0.0   0.097   0.000   67.9    49   48.0   66.5   9.09  .0747    0.000   212    5    100.0   10 
 1/20/18 10:50p   51.4   51.4   51.0    70   41.9  15.0     S   2.50  30.0     S   44.8   50.9   44.3   42.1  30.049  0.00  0.00     0     0.00      0     0.0  0.00   0.0   0.094   0.000   67.8    49   47.9   66.4   9.09  .0747    0.000   212    5    100.0   10 
 1/20/18 11:00p   51.1   51.4   51.1    72   42.4  16.0     S   2.67  31.0     S   44.1   50.7   43.7   41.5  30.056  0.00  0.00     0     0.00      0     0.0  0.00   0.0   0.097   0.000   67.8    49   47.9   66.4   9.09  .0747    0.003   212    5    100.0   10 
 1/20/18 11:10p   50.3   51.1   50.3    76   43.0  16.0     S   2.67  32.0   SSW   43.2   50.1   43.0   40.8  30.057  0.00  0.00     0     0.00      0     0.0  0.00   0.0   0.102   0.000   67.7    49   47.8   66.3   9.10  .0748    0.000   209    5    100.0   10 
 1/20/18 11:20p   50.1   50.3   50.1    77   43.2  14.0     S   2.33  32.0     S   43.6   50.0   43.5   41.2  30.051  0.00  0.00     0     0.00      0     0.0  0.00   0.0   0.103   0.000   67.6    49   47.8   66.2   9.10  .0748    0.000   212    5    100.0   10 
 1/20/18 11:30p   50.3   50.3   50.1    78   43.7  12.0     S   2.00  29.0     S   44.6   50.2   44.5   42.0  30.045  0.00  0.00     0     0.00      0     0.0  0.00   0.0   0.102   0.000   67.6    49   47.8   66.2   9.10  .0747    0.000   213    5    100.0   10 
 1/20/18 11:40p   50.7   50.7   50.4    77   43.8  12.0     S   2.00  22.0   SSW   45.1   50.5   44.9   42.4  30.046  0.00  0.00     0     0.00      0     0.0  0.00   0.0   0.099   0.000   67.4    49   47.6   65.9   9.10  .0748    0.000   209    5    100.0   10 
 1/20/18 11:50p   51.3   51.3   50.7    76   44.0  14.0     S   2.33  32.0     S   45.0   51.0   44.7   42.4  30.034  0.00  0.00     0     0.00      0     0.0  0.00   0.0   0.095   0.000   67.4    49   47.6   65.9   9.10  .0747    0.000   214    5    100.0   10 
 1/21/18 12:00a   51.7   51.7   51.3    73   43.3  14.0     S   2.33  32.0     S   45.5   51.3   45.1   42.8  30.035  0.00  0.00     0     0.00      0     0.0  0.00   0.0   0.092   0.000   67.3    49   47.5   65.8   9.10  .0748    0.002   212    5    100.0   10 
 1/21/18 12:10a   51.6   51.7   51.6    73   43.2  13.0     S   2.17  28.0     S   45.7   51.2   45.3   42.9  30.030  0.00  0.00     0     0.00      0     0.0  0.00   0.0   0.093   0.000   67.2    49   47.4   65.7   9.11  .0748    0.000   213    5    100.0   10 
 1/21/18 12:20a   51.5   51.6   51.4    73   43.1  12.0     S   2.00  22.0     S   46.0   51.1   45.6   43.1  30.029  0.00  0.00     0     0.00      0     0.0  0.00   0.0   0.094   0.000   67.1    49   47.3   65.6   9.11  .0748    0.000   212    5    100.0   10 
 1/21/18 12:30a   51.5   51.5   51.5    73   43.1  13.0     S   2.17  24.0   SSW   45.6   51.1   45.2   42.8  30.022  0.00  0.00     0     0.00      0     0.0  0.00   0.0   0.094   0.000   67.1    49   47.3   65.6   9.11  .0748    0.000   209    5    100.0   10 
 1/21/18 12:40a   51.7   51.7   51.5    73   43.3  14.0     S   2.33  30.0    SE   45.5   51.3   45.1   42.8  30.016  0.00  0.00     0     0.00      0     0.0  0.00   0.0   0.092   0.000   67.0    49   47.2   65.5   9.11  .0748    0.000   213    5    100.0   10 
 1/21/18 12:50a   51.8   51.8   51.6    72   43.1  14.0     S   2.33  34.0   SSE   45.6   51.3   45.1   42.8  30.011  0.00  0.00     0     0.00      0     0.0  0.00   0.0   0.092   0.000   66.9    49   47.1   65.4   9.11  .0748    0.000   213    5    100.0   10 
 1/21/18  1:00a   52.0   52.1   51.8    71   42.9  15.0     S   2.50  35.0     S   45.5   51.4   44.9   42.7  30.013  0.00  0.00     0     0.00      0     0.0  0.00   0.0   0.090   0.000   66.9    49   47.1   65.4   9.11  .0748    0.003   210    5    100.0   10 
 1/21/18  1:10a   51.9   52.0   51.9    71   42.8  12.0     S   2.00  26.0     S   46.5   51.4   46.0   43.5  30.004  0.00  0.00     0     0.00      0     0.0  0.00   0.0   0.091   0.000   66.8    49   47.0   65.3   9.11  .0748    0.000   213    5    100.0   10 
 1/21/18  1:20a   51.9   51.9   51.8    71   42.8  14.0     S   2.33  25.0     S   45.7   51.4   45.2   42.9  30.001  0.00  0.00     0     0.00      0     0.0  0.00   0.0   0.091   0.000   66.7    49   46.9   65.1   9.12  .0748    0.000   211    5    100.0   10 
 1/21/18  1:30a   52.0   52.0   51.8    72   43.3  15.0     S   2.50  32.0     S   45.5   51.5   45.0   42.8  29.997  0.00  0.00     0     0.00      0     0.0  0.00   0.0   0.090   0.000   66.7    49   46.9   65.1   9.12  .0748    0.000   212    5    100.0   10 
 1/21/18  1:40a   52.1   52.1   51.9    72   43.3  15.0     S   2.50  33.0   SSE   45.6   51.6   45.1   42.9  29.990  0.00  0.00     0     0.00      0     0.0  0.00   0.0   0.090   0.000   66.6    49   46.8   65.0   9.12  .0748    0.000   212    5    100.0   10 
 1/21/18  1:50a   52.3   52.3   51.9    70   42.8  14.0     S   2.33  29.0   SSW   46.1   51.7   45.5   43.2  29.989  0.00  0.00     0     0.00      0     0.0  0.00   0.0   0.088   0.000   66.5    49   46.7   64.9   9.12  .0748    0.000   213    5    100.0   10 
 1/21/18  2:00a   52.1   52.3   52.1    71   43.0  15.0     S   2.50  28.0   SSW   45.6   51.5   45.0   42.8  29.986  0.00  0.00     0     0.00      0     0.0  0.00   0.0   0.090   0.000   66.5    49   46.7   64.9   9.12  .0748    0.003   209    5    100.0   10 
 1/21/18  2:10a   52.0   52.2   52.0    72   43.3  13.0     S   2.17  29.0   SSE   46.2   51.5   45.7   43.3  29.985  0.00  0.00     0     0.00      0     0.0  0.00   0.0   0.090   0.000   66.4    49   46.7   64.8   9.12  .0748    0.000   212    5    100.0   10 
 1/21/18  2:20a   52.0   52.1   52.0    72   43.3  14.0     S   2.33  29.0   SSE   45.8   51.5   45.3   43.0  29.979  0.00  0.00     0     0.00      0     0.0  0.00   0.0   0.090   0.000   66.4    49   46.7   64.8   9.12  .0748    0.000   213    5    100.0   10 
 1/21/18  2:30a   52.2   52.4   52.1    71   43.1  17.0     S   2.83  35.0     S   45.1   51.6   44.5   42.4  29.977  0.00  0.00     0     0.00      0     0.0  0.00   0.0   0.089   0.000   66.3    49   46.6   64.7   9.12  .0748    0.000   212    5    100.0   10 
 1/21/18  2:40a   52.5   52.5   52.3    70   43.0  15.0     S   2.50  35.0     S   46.1   51.8   45.4   43.2  29.964  0.00  0.00     0     0.00      0     0.0  0.00   0.0   0.087   0.000   66.3    49   46.6   64.7   9.12  .0748    0.000   213    5    100.0   10 
 1/21/18  2:50a   52.4   52.5   52.3    70   42.9  13.0     S   2.17  33.0     S   46.6   51.8   46.0   43.6  29.967  0.00  0.00     0     0.00      0     0.0  0.00   0.0   0.087   0.000   66.2    49   46.5   64.5   9.13  .0748    0.000   212    5    100.0   10 
 1/21/18  3:00a   52.0   52.4   52.0    71   42.9  14.0     S   2.33  31.0   SSE   45.8   51.4   45.2   42.9  29.951  0.00  0.00     0     0.00      0     0.0  0.00   0.0   0.090   0.000   66.2    49   46.5   64.5   9.13  .0747    0.003   212    5    100.0   10 
 1/21/18  3:10a   51.9   52.0   51.8    71   42.8  14.0     S   2.33  33.0     S   45.7   51.4   45.2   42.9  29.948  0.00  0.00     0     0.00      0     0.0  0.00   0.0   0.091   0.000   66.1    49   46.4   64.4   9.13  .0748    0.000   212    5    100.0   10 
 1/21/18  3:20a   52.1   52.2   51.8    69   42.2  13.0     S   2.17  34.0   SSW   46.3   51.5   45.7   43.3  29.940  0.00  0.00     0     0.00      0     0.0  0.00   0.0   0.090   0.000   66.0    49   46.3   64.3   9.13  .0747    0.000   212    5    100.0   10 
 1/21/18  3:30a   52.0   52.1   52.0    69   42.1  11.0     S   1.83  24.0     S   47.1   51.4   46.5   44.0  29.935  0.00  0.00     0     0.00      0     0.0  0.00   0.0   0.090   0.000   66.0    49   46.3   64.3   9.13  .0747    0.000   210    5    100.0   10 
 1/21/18  3:40a   52.0   52.2   51.9    69   42.1  12.0     S   2.00  25.0   SSW   46.6   51.4   46.0   43.5  29.925  0.00  0.00     0     0.00      0     0.0  0.00   0.0   0.090   0.000   65.9    49   46.2   64.2   9.13  .0747    0.000   213    5    100.0   10 
 1/21/18  3:50a   52.1   52.2   52.0    69   42.2  14.0     S   2.33  30.0     S   45.9   51.5   45.3   43.0  29.916  0.00  0.00     0     0.00      0     0.0  0.00   0.0   0.090   0.000   65.9    49   46.2   64.2   9.13  .0747    0.000   213    5    100.0   10 
 1/21/18  4:00a   51.5   52.1   51.5    72   42.8  14.0     S   2.33  32.0     S   45.3   51.0   44.8   42.5  29.916  0.00  0.00     0     0.00      0     0.0  0.00   0.0   0.094   0.000   65.8    49   46.1   64.1   9.13  .0747    0.003   213    5    100.0   10 
 1/21/18  4:10a   51.0   51.5   51.0    73   42.6  15.0     S   2.50  32.0     S   44.3   50.6   43.9   41.7  29.913  0.00  0.00     0     0.00      0     0.0  0.00   0.0   0.097   0.000   65.8    49   46.1   64.1   9.13  .0747    0.000   211    5    100.0   10 
 1/21/18  4:20a   50.4   51.0   50.4    76   43.1  14.0     S   2.33  27.0    SE   44.0   50.2   43.8   41.5  29.913  0.00  0.00     0     0.00      0     0.0  0.00   0.0   0.101   0.000   65.8    49   46.1   64.1   9.13  .0747    0.000   212    5    100.0   10 
 1/21/18  4:30a   50.0   50.4   50.0    77   43.1  12.0     S   2.00  23.0     S   44.3   49.9   44.2   41.7  29.909  0.00  0.00     0     0.00      0     0.0  0.00   0.0   0.104   0.000   65.7    49   46.0   64.0   9.14  .0747    0.000   211    5    100.0   10 
 1/21/18  4:40a   49.7   50.0   49.7    78   43.1  11.0     S   1.83  27.0     S   44.4   49.6   44.3   41.8  29.905  0.01  0.00     0     0.00      0     0.0  0.00   0.0   0.106   0.000   65.7    49   46.0   64.0   9.14  .0747    0.000   213    5    100.0   10 
 1/21/18  4:50a   49.7   49.8   49.6    79   43.5  14.0     S   2.33  29.0   SSE   43.2   49.6   43.1   40.8  29.902  0.01  0.05     0     0.00      0     0.0  0.00   0.0   0.106   0.000   65.6    49   45.9   63.9   9.14  .0747    0.000   210    5    100.0   10 
 1/21/18  5:00a   49.7   49.8   49.6    80   43.8  15.0     S   2.50  37.0   SSE   42.9   49.7   42.9   40.7  29.895  0.01  0.05     0     0.00      0     0.0  0.00   0.0   0.106   0.000   65.6    49   45.9   63.9   9.14  .0747    0.002   213    5    100.0   10 
 1/21/18  5:10a   49.4   49.7   49.4    80   43.5  17.0     S   2.83  34.0    SE   41.9   49.3   41.8   39.7  29.898  0.00  0.05     0     0.00      0     0.0  0.00   0.0   0.108   0.000   65.5    49   45.8   63.8   9.14  .0747    0.000   214    5    100.0   10 
 1/21/18  5:20a   49.5   49.5   49.3    80   43.6  18.0     S   3.00  37.0   SSW   41.8   49.5   41.8   39.8  29.893  0.01  0.06     0     0.00      0     0.0  0.00   0.0   0.108   0.000   65.5    49   45.8   63.8   9.14  .0747    0.000   210    5    100.0   10 
 1/21/18  5:30a   49.4   49.5   49.2    81   43.8  17.0     S   2.83  32.0     S   41.9   49.4   41.9   39.8  29.883  0.01  0.06     0     0.00      0     0.0  0.00   0.0   0.108   0.000   65.4    49   45.7   63.6   9.14  .0747    0.000   211    5    100.0   10 
 1/21/18  5:40a   49.2   49.4   49.2    82   43.9  18.0     S   3.00  37.0   SSW   41.4   49.2   41.4   39.4  29.883  0.02  0.07     0     0.00      0     0.0  0.00   0.0   0.110   0.000   65.4    49   45.7   63.6   9.14  .0747    0.000   212    5    100.0   10 
 1/21/18  5:50a   49.0   49.2   49.0    82   43.7  20.0     S   3.33  38.0     S   40.7   49.0   40.7   38.8  29.889  0.02  0.12     0     0.00      0     0.0  0.00   0.0   0.111   0.000   65.4    49   45.7   63.6   9.14  .0747    0.000   213    5    100.0   10 
 1/21/18  6:00a   48.9   49.0   48.8    83   44.0  19.0     S   3.17  42.0    SE   40.8   48.9   40.8   38.8  29.872  0.01  0.13     0     0.00      0     0.0  0.00   0.0   0.112   0.000   65.3    49   45.6   63.5   9.14  .0747    0.002   212    5    100.0   10 
 1/21/18  6:10a   48.6   49.0   48.6    84   44.0  18.0     S   3.00  39.0     S   40.8   48.6   40.8   38.8  29.880  0.02  0.10     0     0.00      0     0.0  0.00   0.0   0.114   0.000   65.3    49   45.6   63.5   9.14  .0747    0.000   211    5    100.0   10 
 1/21/18  6:20a   48.9   48.9   48.5    83   44.0  20.0     S   3.33  41.0     S   40.6   48.9   40.6   38.7  29.871  0.01  0.07     0     0.00      0     0.0  0.00   0.0   0.112   0.000   65.2    49   45.5   63.4   9.15  .0747    0.000   211    5    100.0   10 
 1/21/18  6:30a   48.8   48.9   48.7    85   44.5  20.0     S   3.33  37.0   SSW   40.5   48.9   40.6   38.7  29.871  0.01  0.07     0     0.00      0     0.0  0.00   0.0   0.113   0.000   65.2    49   45.5   63.4   9.15  .0747    0.000   210    5    100.0   10 
 1/21/18  6:40a   48.7   48.8   48.5    85   44.4  20.0     S   3.33  38.0   SSW   40.4   48.8   40.5   38.6  29.876  0.01  0.07     0     0.00      0     0.0  0.00   0.0   0.113   0.000   65.1    49   45.5   63.3   9.15  .0747    0.000   213    5    100.0   10 
 1/21/18  6:50a   48.7   48.9   48.6    85   44.4  18.0     S   3.00  30.0     S   40.9   48.8   41.0   39.0  29.866  0.00  0.05     0     0.00      0     0.0  0.00   0.0   0.113   0.000   65.1    49   45.5   63.3   9.15  .0747    0.000   212    5    100.0   10 
 1/21/18  7:00a   48.9   48.9   48.7    85   44.6  18.0     S   3.00  40.0     S   41.1   49.0   41.2   39.2  29.848  0.01  0.05     0     0.00      0     0.0  0.00   0.0   0.112   0.000   65.0    49   45.4   63.2   9.15  .0747    0.002   214    5    100.0   10 
 1/21/18  7:10a   49.2   49.4   48.9    84   44.6  19.0     S   3.17  41.0   SSW   41.1   49.3   41.2   39.3  29.845  0.01  0.05     0     0.00      0     0.0  0.00   0.0   0.110   0.000   65.0    49   45.4   63.2   9.15  .0747    0.000   213    5    100.0   10 
 1/21/18  7:20a   49.7   49.7   49.2    83   44.7  20.0     S   3.33  37.0   SSE   41.5   49.7   41.5   39.6  29.841  0.00  0.04     0     0.00      0     0.0  0.00   0.0   0.106   0.000   65.0    49   45.4   63.2   9.15  .0747    0.000   211    5    100.0   10 
 1/21/18  7:30a   49.7   49.9   49.7    83   44.7  20.0     S   3.33  37.0   SSW   41.5   49.7   41.5   39.6  29.838  0.01  0.04     0     0.00      0     0.0  0.00   0.0   0.106   0.000   64.9    49   45.3   63.1   9.15  .0747    0.000   210    5    100.0   10 
 1/21/18  7:40a   50.1   50.2   49.7    82   44.8  23.0     S   3.83  48.0     S   41.3   50.1   41.3   39.6  29.841  0.00  0.00     0     0.00      0     0.0  0.00   0.0   0.103   0.000   64.9    49   45.3   63.1   9.15  .0747    0.000   212    5    100.0   10 
 1/21/18  7:50a   51.0   51.0   50.2    80   45.0  22.0     S   3.67  48.0     S   42.5   50.9   42.4   40.6  29.810  0.00  0.00     0     0.00      0     0.0  0.00   0.0   0.097   0.000   65.0    49   45.4   63.2   9.15  .0746    0.000   211    5    100.0   10 
 1/21/18  8:00a   51.1   51.5   51.1    79   44.8  19.0     S   3.17  45.0     S   43.3   51.0   43.2   41.3  29.806  0.00  0.00     5     0.07      7     0.0  0.00   0.0   0.097   0.000   65.1    50   46.0   63.4   9.35  .0745    0.002   210    5    100.0   10 
 1/21/18  8:10a   50.5   51.1   50.5    81   44.9  20.0     S   3.33  54.0   SSW   42.4   50.5   42.4   40.7  29.810  0.00  0.00     8     0.11     11     0.0  0.00   0.0   0.101   0.000   65.4    50   46.3   63.7   9.34  .0745    0.000   211    5    100.0   10 
 1/21/18  8:20a   50.6   50.6   50.3    80   44.7  18.0     S   3.00  42.0   SSE   43.0   50.5   42.9   41.1  29.815  0.00  0.00    13     0.19     18     0.0  0.00   0.0   0.100   0.000   65.6    50   46.5   64.0   9.34  .0745    0.000   212    5    100.0   10 
 1/21/18  8:30a   50.5   50.6   50.5    81   44.9  17.0     S   2.83  42.0   SSW   43.2   50.5   43.2   41.4  29.821  0.00  0.00    19     0.27     25     0.0  0.00   0.0   0.101   0.000   65.8    50   46.6   64.2   9.33  .0745    0.000   213    5    100.0   10 
 1/21/18  8:40a   50.6   50.8   50.5    81   45.0  18.0     S   3.00  38.0   SSW   43.0   50.6   43.0   41.6  29.825  0.00  0.00    34     0.49     49     0.0  0.00   0.0   0.100   0.000   66.0    50   46.8   64.4   9.33  .0744    0.000   208    5    100.0   10 
 1/21/18  8:50a   50.6   50.7   50.5    81   45.0  18.0     S   3.00  35.0   SSE   43.0   50.6   43.0   41.8  29.832  0.00  0.00    50     0.72     54     0.0  0.00   0.0   0.100   0.000   66.2    50   47.0   64.6   9.33  .0744    0.000   211    5    100.0   10 
 1/21/18  9:00a   50.4   50.6   50.4    83   45.4  16.0     S   2.67  34.0     S   43.3   50.4   43.3   42.1  29.825  0.00  0.00    50     0.72     53     0.0  0.00   0.0   0.101   0.000   66.4    50   47.2   64.9   9.32  .0744    0.003   209    5    100.0   10 
 1/21/18  9:10a   50.5   50.5   50.3    83   45.5  20.0   SSW   3.33  38.0     S   42.4   50.5   42.4   42.5  29.841  0.01  0.00    50     0.72     54     0.0  0.00   0.0   0.101   0.000   66.6    50   47.4   65.1   9.32  .0744    0.000   212    5    100.0   10 
 1/21/18  9:20a   50.3   50.5   50.2    84   45.6  21.0     S   3.50  38.0     S   41.9   50.3   41.9   41.7  29.855  0.00  0.00    38     0.54     47     0.0  0.00   0.0   0.102   0.000   66.7    50   47.5   65.2   9.32  .0744    0.000   209    5    100.0   10 
 1/21/18  9:30a   50.3   50.3   50.2    84   45.6  20.0     S   3.33  42.0     S   42.2   50.3   42.2   42.1  29.859  0.00  0.00    44     0.63     58     0.0  0.00   0.0   0.102   0.000   66.8    50   47.6   65.4   9.31  .0744    0.000   212    5    100.0   10 
 1/21/18  9:40a   50.9   50.9   50.3    83   45.9  20.0     S   3.33  36.0     S   42.9   50.9   42.9   43.0  29.875  0.00  0.00    51     0.73     90     0.0  0.00   0.0   0.098   0.000   67.0    50   47.7   65.6   9.31  .0744    0.000   209    5    100.0   10 
 1/21/18  9:50a   50.4   51.0   50.4    84   45.7  23.0   SSW   3.83  42.0   SSW   41.6   50.4   41.6   42.0  29.874  0.01  0.00    61     0.87     98     0.0  0.00   0.0   0.101   0.000   67.0    50   47.7   65.6   9.31  .0744    0.000   209    5    100.0   10 
 1/21/18 10:00a   49.8   50.3   49.8    86   45.8  18.0   SSW   3.00  39.0   SSW   42.1   49.9   42.2   42.4  29.901  0.00  0.00    55     0.79     74     0.0  0.00   0.0   0.106   0.000   67.2    50   47.9   65.8   9.31  .0744    0.003   212    5    100.0   10 
 1/21/18 10:10a   49.7   50.2   49.7    90   46.9  23.0   SSW   3.83  39.0     S   40.9   50.0   41.2   40.6  29.933  0.02  0.15    26     0.37     33     0.0  0.00   0.0   0.106   0.000   67.3    50   48.0   65.9   9.30  .0745    0.000   211    5    100.0   10 
 1/21/18 10:20a   49.1   49.8   49.1    91   46.6  21.0    SW   3.50  33.0    SW   40.6   49.4   40.9   40.4  29.951  0.02  0.15    31     0.44     40     0.0  0.00   0.0   0.110   0.000   67.4    50   48.1   66.0   9.30  .0745    0.000   212    5    100.0   10 
 1/21/18 10:30a   48.8   49.1   48.3    90   46.0  20.0    SW   3.33  32.0    SW   40.5   49.1   40.8   40.7  29.953  0.00  0.05    47     0.67     49     0.0  0.00   0.0   0.113   0.000   67.4    50   48.1   66.0   9.30  .0745    0.000   212    5    100.0   10 
 1/21/18 10:40a   49.2   49.2   48.7    91   46.7  17.0    SW   2.83  23.0   WSW   41.7   49.5   42.0   42.3  29.964  0.01  0.05    61     0.87     74     0.0  0.00   0.0   0.110   0.000   67.5    50   48.2   66.1   9.30  .0745    0.000   212    5    100.0   10 
 1/21/18 10:50a   49.3   49.5   49.2    91   46.8  15.0    SW   2.50  23.0    SW   42.4   49.6   42.7   43.1  29.965  0.00  0.00    63     0.90     79     0.0  0.00   0.0   0.109   0.000   67.5    50   48.2   66.1   9.30  .0745    0.000   210    5    100.0   10 
 1/21/18 11:00a   48.6   49.2   48.6    89   45.5  14.0   SSW   2.33  20.0    SW   41.9   48.8   42.1   42.5  29.968  0.01  0.00    66     0.95     79     0.0  0.00   0.0   0.114   0.000   67.5    50   48.2   66.1   9.30  .0745    0.002   211    5    100.0   10 
 1/21/18 11:10a   48.9   49.2   48.6    90   46.1  14.0   SSW   2.33  21.0     S   42.3   49.2   42.6   43.1  29.972  0.00  0.00    68     0.97     83     0.0  0.00   0.0   0.112   0.000   67.6    50   48.3   66.3   9.30  .0745    0.000   213    5    100.0   10 
 1/21/18 11:20a   49.1   49.1   48.9    91   46.6  13.0   SSW   2.17  21.0   SSE   42.8   49.4   43.1   43.3  29.971  0.00  0.00    58     0.83     72     0.0  0.00   0.0   0.110   0.000   67.7    50   48.4   66.4   9.30  .0745    0.000   210    5    100.0   10 
 1/21/18 11:30a   48.9   49.1   48.9    91   46.4  11.0   SSW   1.83  18.0     S   43.5   49.2   43.8   44.0  29.975  0.01  0.00    60     0.86     69     0.0  0.00   0.0   0.112   0.000   67.7    50   48.4   66.4   9.30  .0745    0.000   214    5    100.0   10 
 1/21/18 11:40a   48.4   48.9   48.4    90   45.6   9.0   SSW   1.50  15.0   SSW   44.0   48.6   44.2   44.2  29.979  0.00  0.00    56     0.80     62     0.0  0.00   0.0   0.115   0.000   67.7    50   48.4   66.4   9.30  .0745    0.000   213    5    100.0   10 
 1/21/18 11:50a   48.7   48.9   48.4    90   45.9   7.0   SSW   1.17  14.0   SSE   45.6   49.0   45.9   46.9  29.976  0.00  0.00    79     1.13     88     0.0  0.00   0.0   0.113   0.000   67.8    50   48.5   66.5   9.29  .0745    0.000   211    5    100.0   10 
 1/21/18 12:00p   48.6   48.7   48.5    90   45.8   6.0     S   1.00  13.0   SSW   46.0   48.9   46.3   47.8  29.977  0.00  0.00    94     1.35    113     0.0  0.00   0.0   0.114   0.000   67.8    50   48.5   66.5   9.29  .0745    0.002   212    5    100.0   10 
 1/21/18 12:10p   48.7   48.8   48.5    91   46.2   5.0     S   0.83  11.0   SSE   46.7   49.0   47.0   48.6  29.978  0.00  0.00    96     1.38    113     0.0  0.00   0.0   0.113   0.000   67.8    50   48.5   66.5   9.29  .0745    0.000   208    5    100.0   10 
 1/21/18 12:20p   48.7   48.9   48.7    90   45.9   5.0     S   0.83  11.0     S   46.7   49.0   47.0   49.8  29.982  0.00  0.00   130     1.86    149     0.0  0.00   0.0   0.113   0.000   67.9    50   48.6   66.6   9.29  .0745    0.000   212    5    100.0   10 
 1/21/18 12:30p   49.2   49.2   48.7    91   46.7   6.0   SSW   1.00  11.0    SW   46.7   49.5   47.0   51.2  29.979  0.00  0.00   169     2.42    206     0.0  0.00   0.0   0.110   0.000   67.9    50   48.6   66.6   9.29  .0745    0.000   213    5    100.0   10 
 1/21/18 12:40p   49.5   49.5   49.2    91   47.0   7.0   SSW   1.17  13.0     S   46.6   49.8   46.9   52.0  29.980  0.00  0.00   200     2.87    209     0.0  0.00   0.0   0.108   0.000   67.9    50   48.6   66.6   9.29  .0745    0.000   210    5    100.0   10 
 1/21/18 12:50p   49.4   49.5   49.4    91   46.9   9.0   SSW   1.50  15.0    SW   45.2   49.7   45.5   49.6  29.981  0.00  0.00   176     2.52    181     0.0  0.00   0.0   0.108   0.000   68.0    50   48.7   66.7   9.29  .0745    0.000   212    5    100.0   10 
 1/21/18  1:00p   49.6   49.6   49.4    92   47.4   8.0   SSW   1.33  13.0   SSW   46.0   50.0   46.4   50.0  29.984  0.00  0.00   154     2.21    174     0.0  0.00   0.0   0.107   0.000   68.0    50   48.7   66.7   9.29  .0745    0.003   210    5    100.0   10 
 1/21/18  1:10p   49.9   49.9   49.6    92   47.7   8.0   SSW   1.33  16.0     S   46.4   50.3   46.8   51.8  29.983  0.00  0.00   197     2.82    225     0.0  0.00   0.0   0.105   0.000   68.1    50   48.8   66.8   9.29  .0745    0.000   211    5    100.0   10 
 1/21/18  1:20p   50.0   50.0   49.9    92   47.8   8.0   SSW   1.33  14.0     S   46.5   50.4   46.9   51.9  29.985  0.00  0.00   196     2.81    241     0.0  0.00   0.0   0.104   0.000   68.1    50   48.8   66.8   9.29  .0745    0.000   213    5    100.0   10 
 1/21/18  1:30p   49.9   50.1   49.9    92   47.7   8.0   SSW   1.33  14.0   SSW   46.4   50.3   46.8   51.4  29.987  0.00  0.00   184     2.64    223     0.0  0.00   0.0   0.105   0.000   68.2    50   48.8   66.9   9.29  .0745    0.000   213    5    100.0   10 
 1/21/18  1:40p   50.3   50.4   49.9    92   48.1  10.0   SSW   1.67  16.0     S   45.7   50.7   46.1   51.2  29.995  0.00  0.00   207     2.97    265     0.0  0.00   0.0   0.102   0.000   68.2    50   48.8   66.9   9.29  .0745    0.000   208    5    100.0   10 
 1/21/18  1:50p   50.4   50.6   50.3    91   47.9  10.0   SSW   1.67  14.0   SSW   45.8   50.7   46.1   53.1  29.998  0.00  0.00   297     4.26    434     0.0  0.00   0.0   0.101   0.000   68.3    50   48.9   67.0   9.28  .0745    0.000   213    5    100.0   10 
 1/21/18  2:00p   50.9   50.9   50.4    88   47.5  11.0    SW   1.83  17.0    SW   45.8   51.0   45.9   51.5  30.001  0.00  0.00   255     3.66    316     0.0  0.00   0.0   0.098   0.000   68.3    50   48.9   67.0   9.28  .0745    0.005   213    5    100.0   10 
 1/21/18  2:10p   51.4   51.4   50.9    85   47.0  11.0    SW   1.83  15.0    SW   46.4   51.4   46.4   52.1  30.002  0.00  0.00   253     3.63    308     0.0  0.00   0.0   0.094   0.000   68.4    50   49.0   67.1   9.28  .0745    0.000   210    5    100.0   10 
 1/21/18  2:20p   51.5   51.7   51.3    82   46.2  10.0    SW   1.67  15.0    SW   47.1   51.4   47.0   54.9  30.004  0.00  0.00   308     4.42    360     0.0  0.00   0.0   0.094   0.000   68.4    50   49.0   67.1   9.28  .0745    0.000   213    5    100.0   10 
 1/21/18  2:30p   51.5   51.7   51.5    84   46.8  10.0    SW   1.67  14.0    SW   47.1   51.5   47.1   51.0  30.005  0.00  0.00   163     2.34    251     0.0  0.00   0.0   0.094   0.000   68.5    50   49.1   67.1   9.28  .0745    0.000   213    5    100.0   10 
 1/21/18  2:40p   51.4   51.5   51.3    83   46.4  10.0    SW   1.67  15.0    SW   46.9   51.3   46.8   49.7  30.007  0.00  0.00   129     1.85    137     0.0  0.00   0.0   0.094   0.000   68.5    50   49.1   67.1   9.28  .0745    0.000   212    5    100.0   10 
 1/21/18  2:50p   51.5   51.5   51.3    84   46.8  10.0    SW   1.67  15.0   SSE   47.1   51.5   47.1   50.9  30.009  0.00  0.00   176     2.52    253     0.0  0.00   0.0   0.094   0.000   68.5    50   49.1   67.1   9.28  .0745    0.000   212    5    100.0   10 
 1/21/18  3:00p   51.7   51.7   51.4    84   47.0  11.0    SW   1.83  16.0    SW   46.7   51.7   46.7   51.7  30.010  0.00  0.00   207     2.97    241     0.0  0.00   0.0   0.092   0.000   68.6    50   49.2   67.2   9.28  .0745    0.005   211    5    100.0   10 
 1/21/18  3:10p   51.7   51.8   51.6    83   46.7  10.0    SW   1.67  15.0   WSW   47.3   51.6   47.2   53.2  30.011  0.00  0.00   222     3.18    243     0.0  0.00   0.0   0.092   0.000   68.6    50   49.2   67.2   9.28  .0745    0.000   212    5    100.0   10 
 1/21/18  3:20p   51.6   51.7   51.6    83   46.6   9.0    SW   1.50  15.0     S   47.8   51.5   47.7   48.2  30.014  0.00  0.00   175     2.51    193     0.0  0.00   0.0   0.093   0.000   68.6    50   49.2   67.2   9.28  .0745    0.000   212    5    100.0   10 
 1/21/18  3:30p   51.5   51.6   51.4    83   46.5  10.0    SW   1.67  15.0    SW   47.1   51.4   47.0   46.6  30.019  0.00  0.00   128     1.83    139     0.0  0.00   0.0   0.094   0.000   68.6    50   49.2   67.2   9.28  .0745    0.000   210    5    100.0   10 
 1/21/18  3:40p   51.4   51.5   51.4    81   45.8  11.0    SW   1.83  15.0    SW   46.4   51.3   46.3   45.5  30.022  0.00  0.00   112     1.61    120     0.0  0.00   0.0   0.094   0.000   68.6    50   49.2   67.2   9.28  .0745    0.000   212    5    100.0   10 
 1/21/18  3:50p   51.3   51.5   51.3    81   45.7  10.0    SW   1.67  15.0   SSE   46.8   51.2   46.7   45.5  30.024  0.00  0.00    90     1.29    104     0.0  0.00   0.0   0.095   0.000   68.6    50   49.2   67.2   9.28  .0745    0.000   210    5    100.0   10 
 1/21/18  4:00p   51.4   51.5   51.3    81   45.8  10.0    SW   1.67  13.0    SW   46.9   51.3   46.8   45.5  30.026  0.00  0.00    84     1.20     86     0.0  0.00   0.0   0.094   0.000   68.6    50   49.2   67.2   9.28  .0745    0.004   213    5    100.0   10 
 1/21/18  4:10p   51.5   51.5   51.4    81   45.9  10.0    SW   1.67  14.0    SW   47.1   51.4   47.0   45.4  30.029  0.00  0.00    69     0.99     77     0.0  0.00   0.0   0.094   0.000   68.6    50   49.2   67.2   9.28  .0745    0.000   213    5    100.0   10 
Email: AdamSPAM@StormwatchersRetreat.com (To send me email remove the word 'SPAM' from my email address.)